createdAt,value
2023-03-08T00:01:24.029Z,81.70
2023-03-08T00:03:57.372Z,82.20
2023-03-08T00:06:26.890Z,82.30
2023-03-08T00:08:56.925Z,82.30
2023-03-08T00:11:27.273Z,82.30
2023-03-08T00:13:56.260Z,82.40
2023-03-08T00:16:25.372Z,82.40
2023-03-08T00:18:53.727Z,82.50
2023-03-08T00:21:22.490Z,83.30
2023-03-08T00:23:53.952Z,82.60
2023-03-08T00:26:22.478Z,82.60
2023-03-08T00:28:53.096Z,82.80
2023-03-08T00:31:21.950Z,82.90
2023-03-08T00:33:53.927Z,83.10
2023-03-08T00:36:23.022Z,83.20
2023-03-08T00:38:52.680Z,83.50
2023-03-08T00:41:21.572Z,83.70
2023-03-08T00:43:51.502Z,84.00
2023-03-08T00:46:19.971Z,84.30
2023-03-08T00:48:48.520Z,84.50
2023-03-08T00:51:19.090Z,84.70
2023-03-08T00:53:48.679Z,84.90
2023-03-08T00:56:17.211Z,85.10
2023-03-08T00:58:46.559Z,85.90
2023-03-08T01:01:18.668Z,85.80
2023-03-08T01:03:49.745Z,85.60
2023-03-08T01:06:18.399Z,85.20
2023-03-08T01:08:46.811Z,84.70
2023-03-08T01:11:20.972Z,84.00
2023-03-08T01:13:50.411Z,83.40
2023-03-08T01:16:22.566Z,82.90
2023-03-08T01:18:51.345Z,82.60
2023-03-08T01:21:22.361Z,82.30
2023-03-08T01:23:51.691Z,82.10
2023-03-08T01:26:22.059Z,82.00
2023-03-08T01:28:51.205Z,82.10
2023-03-08T01:31:22.466Z,82.10
2023-03-08T01:33:53.364Z,83.20
2023-03-08T01:36:24.177Z,83.00
2023-03-08T01:38:53.462Z,83.50
2023-03-08T01:41:24.880Z,84.00
2023-03-08T01:43:53.801Z,84.60
2023-03-08T01:46:28.795Z,85.20
2023-03-08T01:49:09.417Z,85.90
2023-03-08T01:51:44.000Z,86.50
2023-03-08T01:54:16.754Z,86.80
2023-03-08T01:56:47.652Z,87.10
2023-03-08T01:59:16.613Z,87.30
2023-03-08T02:01:47.051Z,87.50
2023-03-08T02:04:15.630Z,87.70
2023-03-08T02:06:45.991Z,88.00
2023-03-08T02:09:17.792Z,88.60
2023-03-08T02:11:46.788Z,89.20
2023-03-08T02:14:15.164Z,89.50
2023-03-08T02:16:47.827Z,89.80
2023-03-08T02:19:22.337Z,90.10
2023-03-08T02:21:50.684Z,90.20
2023-03-08T02:24:23.842Z,90.20
2023-03-08T02:26:56.260Z,90.30
2023-03-08T02:29:24.622Z,90.60
2023-03-08T02:31:53.008Z,90.40
2023-03-08T02:34:21.378Z,90.40
2023-03-08T02:36:49.808Z,90.40
2023-03-08T02:39:21.112Z,90.40
2023-03-08T02:41:49.602Z,90.60
2023-03-08T02:44:17.940Z,90.50
2023-03-08T02:46:46.330Z,90.60
2023-03-08T02:49:14.953Z,90.60
2023-03-08T02:51:43.402Z,90.70
2023-03-08T02:54:11.733Z,90.90
2023-03-08T02:56:41.570Z,91.10
2023-03-08T02:59:11.086Z,91.70
2023-03-08T03:01:39.604Z,92.10
2023-03-08T03:04:08.036Z,93.00
2023-03-08T03:06:36.546Z,93.20
2023-03-08T03:09:08.101Z,94.60
2023-03-08T03:11:37.389Z,95.20
2023-03-08T03:14:07.084Z,95.00
2023-03-08T03:16:40.872Z,94.80
2023-03-08T03:19:11.403Z,94.60
2023-03-08T03:21:40.699Z,94.50
2023-03-08T03:24:09.595Z,94.30
2023-03-08T03:26:52.325Z,94.20
2023-03-08T03:29:23.862Z,94.40
2023-03-08T03:31:58.431Z,94.50
2023-03-08T03:34:26.854Z,94.70
2023-03-08T03:36:55.261Z,94.80
2023-03-08T03:39:24.736Z,95.00
2023-03-08T03:41:54.098Z,95.00
2023-03-08T03:44:23.791Z,95.20
2023-03-08T03:46:52.744Z,95.30
2023-03-08T03:49:25.644Z,96.20
2023-03-08T03:51:54.216Z,96.60
2023-03-08T03:54:38.796Z,97.40
2023-03-08T03:57:07.755Z,97.90
2023-03-08T03:59:41.061Z,98.30
2023-03-08T04:02:09.536Z,98.90
2023-03-08T04:04:45.990Z,99.20
2023-03-08T04:07:16.548Z,99.60
2023-03-08T04:09:52.100Z,99.70
2023-03-08T04:12:21.332Z,99.60
2023-03-08T04:14:52.130Z,99.50
2023-03-08T04:17:21.428Z,99.60
2023-03-08T04:19:53.585Z,99.50
2023-03-08T04:22:23.263Z,99.40
2023-03-08T04:24:55.577Z,99.20
2023-03-08T04:27:31.388Z,99.10
2023-03-08T04:30:01.029Z,99.10
2023-03-08T04:32:32.791Z,99.00
2023-03-08T04:35:01.241Z,98.90
2023-03-08T04:37:32.400Z,98.70
2023-03-08T04:40:10.342Z,98.50
2023-03-08T04:42:46.688Z,98.20
2023-03-08T04:45:20.315Z,98.00
2023-03-08T04:47:48.743Z,97.70
2023-03-08T04:50:17.598Z,97.40
2023-03-08T04:52:46.737Z,97.10
2023-03-08T04:55:15.200Z,96.80
2023-03-08T04:57:43.744Z,96.40
2023-03-08T05:00:14.050Z,96.10
2023-03-08T05:02:46.130Z,95.70
2023-03-08T05:05:18.829Z,95.40
2023-03-08T05:07:47.463Z,95.20
2023-03-08T05:10:15.912Z,95.00
2023-03-08T05:12:44.379Z,94.70
2023-03-08T05:15:13.257Z,94.40
2023-03-08T05:17:41.671Z,94.20
2023-03-08T05:20:12.498Z,93.90
2023-03-08T05:22:57.282Z,93.70
2023-03-08T05:25:33.898Z,93.50
2023-03-08T05:28:04.192Z,93.50
2023-03-08T05:30:32.608Z,93.50
2023-03-08T05:33:01.240Z,93.50
2023-03-08T05:35:31.181Z,93.60
2023-03-08T05:37:59.585Z,93.60
2023-03-08T05:40:28.400Z,93.60
2023-03-08T05:42:58.132Z,93.60
2023-03-08T05:45:28.412Z,93.70
2023-03-08T05:47:56.920Z,93.80
2023-03-08T05:50:25.987Z,94.00
2023-03-08T05:52:56.519Z,94.10
2023-03-08T05:55:29.409Z,94.20
2023-03-08T05:57:59.306Z,94.30
2023-03-08T06:00:28.721Z,94.30
2023-03-08T06:03:04.087Z,94.40
2023-03-08T06:05:36.285Z,94.80
2023-03-08T06:08:07.252Z,95.30
2023-03-08T06:10:35.739Z,95.60
2023-03-08T06:13:04.694Z,95.70
2023-03-08T06:15:33.112Z,95.60
2023-03-08T06:18:01.933Z,95.40
2023-03-08T06:20:31.385Z,95.10
2023-03-08T06:22:59.888Z,94.70
2023-03-08T06:25:30.365Z,94.30
2023-03-08T06:27:59.606Z,93.60
2023-03-08T06:30:41.242Z,92.80
2023-03-08T06:33:09.849Z,92.00
2023-03-08T06:35:38.833Z,91.30
2023-03-08T06:38:07.894Z,90.90
2023-03-08T06:40:39.157Z,91.40
2023-03-08T06:43:07.841Z,92.50
2023-03-08T06:45:39.407Z,94.10
2023-03-08T06:48:09.058Z,96.00
2023-03-08T06:50:37.858Z,96.10
2023-03-08T06:53:06.452Z,94.50
2023-03-08T06:56:03.250Z,92.80
2023-03-08T06:58:34.332Z,91.30
2023-03-08T07:01:04.487Z,85.00
2023-03-08T07:03:33.332Z,78.20
2023-03-08T07:06:02.694Z,72.40
2023-03-08T07:08:31.262Z,69.00
2023-03-08T07:11:01.456Z,67.70
2023-03-08T07:13:30.371Z,66.60
2023-03-08T07:15:59.471Z,65.40
2023-03-08T07:18:27.893Z,64.20
2023-03-08T07:20:57.669Z,61.30
2023-03-08T07:23:26.522Z,58.70
2023-03-08T07:25:54.898Z,57.10
2023-03-08T07:28:25.514Z,56.80
2023-03-08T07:30:54.806Z,56.70
2023-03-08T07:33:23.353Z,56.10
2023-03-08T07:35:51.870Z,54.70
2023-03-08T07:38:20.393Z,53.50
2023-03-08T07:40:56.125Z,52.80
2023-03-08T07:43:26.100Z,51.80
2023-03-08T07:46:02.267Z,51.20
2023-03-08T07:48:31.154Z,50.40
2023-03-08T07:51:03.837Z,50.10
2023-03-08T07:53:32.655Z,49.50
2023-03-08T07:56:01.155Z,50.00
2023-03-08T07:58:31.205Z,51.20
2023-03-08T08:00:59.691Z,52.20
2023-03-08T08:03:29.895Z,52.70
2023-03-08T08:05:58.363Z,52.50
2023-03-08T08:08:26.750Z,49.90
2023-03-08T08:10:55.146Z,49.90
2023-03-08T08:13:23.613Z,49.00
2023-03-08T08:16:01.136Z,48.70
2023-03-08T08:18:30.352Z,49.70
2023-03-08T08:21:03.182Z,50.00
2023-03-08T08:23:32.992Z,48.80
2023-03-08T08:26:01.755Z,48.10
2023-03-08T08:28:30.055Z,46.60
2023-03-08T08:31:01.379Z,44.30
2023-03-08T08:33:30.291Z,42.80
2023-03-08T08:35:59.128Z,42.10
2023-03-08T08:38:28.193Z,41.50
2023-03-08T08:41:01.454Z,41.10
2023-03-08T08:43:31.363Z,40.80
2023-03-08T08:46:01.624Z,40.40
2023-03-08T08:48:32.999Z,39.70
2023-03-08T08:51:02.282Z,38.00
2023-03-08T08:53:30.863Z,37.50
2023-03-08T08:55:59.468Z,36.90
2023-03-08T08:58:27.904Z,37.00
2023-03-08T09:00:56.388Z,37.20
2023-03-08T09:03:26.040Z,37.00
2023-03-08T09:05:54.371Z,36.60
2023-03-08T09:08:22.746Z,36.40
2023-03-08T09:10:51.100Z,35.50
2023-03-08T09:13:19.561Z,34.20
2023-03-08T09:15:47.993Z,33.60
2023-03-08T09:18:16.304Z,33.40
2023-03-08T09:20:45.989Z,33.10
2023-03-08T09:23:14.369Z,32.50
2023-03-08T09:25:42.846Z,32.40
2023-03-08T09:28:12.510Z,32.10
2023-03-08T09:30:40.915Z,32.20
2023-03-08T09:33:09.260Z,30.90
2023-03-08T09:35:37.617Z,29.50
2023-03-08T09:38:07.446Z,30.00
2023-03-08T09:40:46.830Z,30.10
2023-03-08T09:43:26.249Z,30.00
2023-03-08T09:45:56.217Z,30.00
2023-03-08T09:48:29.733Z,29.90
2023-03-08T09:51:00.564Z,29.60
2023-03-08T09:53:35.494Z,29.50
2023-03-08T09:56:05.702Z,29.40
2023-03-08T09:58:39.393Z,28.90
2023-03-08T10:01:20.704Z,27.00
2023-03-08T10:04:09.353Z,26.40
2023-03-08T10:06:45.344Z,27.10
2023-03-08T10:09:27.724Z,26.20
2023-03-08T10:12:02.873Z,26.60
2023-03-08T10:14:36.118Z,27.00
2023-03-08T10:17:11.343Z,26.50
2023-03-08T10:19:44.352Z,26.80
2023-03-08T10:22:20.907Z,26.90
2023-03-08T10:24:55.051Z,26.60
2023-03-08T10:27:25.644Z,25.90
2023-03-08T10:29:55.328Z,25.70
2023-03-08T10:32:25.992Z,25.10
2023-03-08T10:34:55.733Z,25.40
2023-03-08T10:37:31.246Z,25.60
2023-03-08T10:40:05.956Z,25.40
2023-03-08T10:42:36.590Z,25.70
2023-03-08T10:45:14.816Z,26.30
2023-03-08T10:47:43.505Z,26.40
2023-03-08T10:50:16.544Z,26.90
2023-03-08T10:52:45.385Z,27.30
2023-03-08T10:55:17.717Z,26.60
2023-03-08T10:57:52.689Z,26.40
2023-03-08T11:00:35.134Z,26.80
2023-03-08T11:03:12.089Z,27.20
2023-03-08T11:05:41.040Z,27.60
2023-03-08T11:08:19.682Z,27.50
2023-03-08T11:10:49.453Z,27.70
2023-03-08T11:13:26.465Z,28.00
2023-03-08T11:16:03.957Z,28.10
2023-03-08T11:18:48.024Z,27.70
2023-03-08T11:21:28.583Z,28.20
2023-03-08T11:24:08.051Z,28.70
2023-03-08T11:26:46.194Z,28.60
2023-03-08T11:29:28.995Z,29.10
2023-03-08T11:32:07.331Z,29.50
2023-03-08T11:35:10.754Z,30.00
2023-03-08T11:37:45.888Z,30.30
2023-03-08T11:40:25.083Z,30.60
2023-03-08T11:43:21.700Z,30.90
2023-03-08T11:45:56.968Z,31.30
2023-03-08T11:49:02.564Z,31.30
2023-03-08T11:51:36.126Z,31.50
2023-03-08T11:54:17.441Z,31.60
2023-03-08T11:56:49.202Z,31.70
2023-03-08T11:59:33.195Z,31.90
2023-03-08T12:02:12.465Z,32.10
2023-03-08T12:05:02.258Z,32.20
2023-03-08T12:07:36.443Z,32.60
2023-03-08T12:10:16.658Z,31.50
2023-03-08T12:12:49.773Z,30.20
2023-03-08T12:15:27.525Z,30.90
2023-03-08T12:18:02.709Z,29.70
2023-03-08T12:20:36.339Z,29.60
2023-03-08T12:23:14.901Z,30.00
2023-03-08T12:25:46.236Z,29.80
2023-03-08T12:28:24.423Z,30.40
2023-03-08T12:31:26.105Z,30.30
2023-03-08T12:33:55.544Z,29.90
2023-03-08T12:36:37.184Z,29.30
2023-03-08T12:39:11.423Z,29.00
2023-03-08T12:41:39.786Z,28.20
2023-03-08T12:44:24.066Z,27.00
2023-03-08T12:47:03.513Z,27.60
2023-03-08T12:49:35.535Z,27.50
2023-03-08T12:52:07.457Z,27.20
2023-03-08T12:54:36.937Z,27.10
2023-03-08T12:57:17.473Z,27.10
2023-03-08T12:59:46.930Z,26.10
2023-03-08T13:02:30.795Z,26.00
2023-03-08T13:05:20.099Z,25.70
2023-03-08T13:08:04.249Z,25.80
2023-03-08T13:10:35.797Z,26.10
2023-03-08T13:13:38.111Z,26.10
2023-03-08T13:16:19.515Z,26.40
2023-03-08T13:18:52.801Z,26.70
2023-03-08T13:21:34.568Z,27.10
2023-03-08T13:24:11.302Z,27.30
2023-03-08T13:27:00.965Z,27.50
2023-03-08T13:29:33.103Z,27.90
2023-03-08T13:32:08.930Z,28.20
2023-03-08T13:34:38.852Z,28.50
2023-03-08T13:37:07.180Z,29.00
2023-03-08T13:39:35.595Z,29.30
2023-03-08T13:42:08.802Z,29.40
2023-03-08T13:44:37.717Z,29.60
2023-03-08T13:47:18.738Z,29.40
2023-03-08T13:49:51.801Z,29.30
2023-03-08T13:52:24.585Z,29.70
2023-03-08T13:54:55.662Z,29.80
2023-03-08T13:57:26.122Z,30.00
2023-03-08T13:59:56.511Z,30.40
2023-03-08T14:02:27.349Z,30.40
2023-03-08T14:04:58.194Z,30.00
2023-03-08T14:07:28.480Z,30.00
2023-03-08T14:09:57.132Z,30.20
2023-03-08T14:12:28.805Z,31.20
2023-03-08T14:15:00.858Z,31.00
2023-03-08T14:17:33.627Z,31.10
2023-03-08T14:20:07.279Z,31.70
2023-03-08T14:22:40.622Z,31.80
2023-03-08T14:25:23.641Z,32.00
2023-03-08T14:27:52.631Z,32.30
2023-03-08T14:30:23.845Z,33.00
2023-03-08T14:33:28.319Z,33.00
2023-03-08T14:36:03.444Z,33.70
2023-03-08T14:38:34.170Z,34.30
2023-03-08T14:41:06.390Z,34.20
2023-03-08T14:43:34.883Z,34.40
2023-03-08T14:46:05.638Z,34.40
2023-03-08T14:48:35.670Z,34.90
2023-03-08T14:51:07.102Z,35.00
2023-03-08T14:53:37.173Z,35.30
2023-03-08T14:56:08.924Z,35.50
2023-03-08T14:58:40.079Z,35.80
2023-03-08T15:01:08.663Z,35.60
2023-03-08T15:03:37.123Z,35.90
2023-03-08T15:06:15.758Z,36.40
2023-03-08T15:08:44.260Z,36.30
2023-03-08T15:11:12.684Z,36.40
2023-03-08T15:13:41.184Z,36.50
2023-03-08T15:16:14.209Z,36.60
2023-03-08T15:18:43.877Z,36.80
2023-03-08T15:21:17.787Z,36.80
2023-03-08T15:23:48.002Z,37.10
2023-03-08T15:26:22.627Z,37.40
2023-03-08T15:28:51.036Z,37.50
2023-03-08T15:31:19.530Z,37.70
2023-03-08T15:33:47.804Z,37.90
2023-03-08T15:36:19.423Z,38.40
2023-03-08T15:38:48.008Z,38.40
2023-03-08T15:41:17.788Z,38.40
2023-03-08T15:43:46.550Z,38.60
2023-03-08T15:46:16.092Z,38.80
2023-03-08T15:48:45.741Z,38.80
2023-03-08T15:51:20.725Z,39.10
2023-03-08T15:53:49.453Z,39.00
2023-03-08T15:56:18.036Z,39.10
2023-03-08T15:58:46.385Z,39.30
2023-03-08T16:01:14.781Z,39.70
2023-03-08T16:03:43.109Z,39.70
2023-03-08T16:06:13.110Z,39.80
2023-03-08T16:08:43.041Z,40.20
2023-03-08T16:11:13.415Z,40.70
2023-03-08T16:13:42.197Z,41.00
2023-03-08T16:16:11.080Z,41.10
2023-03-08T16:18:40.586Z,40.90
2023-03-08T16:21:10.195Z,41.60
2023-03-08T16:23:39.679Z,41.50
2023-03-08T16:26:16.697Z,42.40
2023-03-08T16:28:48.074Z,42.40
2023-03-08T16:31:17.587Z,43.00
2023-03-08T16:33:46.226Z,43.70
2023-03-08T16:36:14.904Z,43.40
2023-03-08T16:38:43.879Z,43.40
2023-03-08T16:41:14.818Z,44.60
2023-03-08T16:43:48.565Z,43.80
2023-03-08T16:46:18.804Z,44.40
2023-03-08T16:48:49.632Z,44.70
2023-03-08T16:51:19.972Z,44.80
2023-03-08T16:53:48.871Z,44.80
2023-03-08T16:56:23.427Z,45.30
2023-03-08T16:58:52.441Z,45.30
2023-03-08T17:01:21.632Z,45.40
2023-03-08T17:03:50.257Z,45.60
2023-03-08T17:06:22.735Z,46.60
2023-03-08T17:08:52.043Z,46.30
2023-03-08T17:11:24.043Z,46.00
2023-03-08T17:13:53.685Z,46.80
2023-03-08T17:16:23.983Z,46.70
2023-03-08T17:18:53.329Z,46.90
2023-03-08T17:21:23.830Z,47.00
2023-03-08T17:23:53.383Z,47.40
2023-03-08T17:26:24.739Z,47.40
2023-03-08T17:28:54.629Z,47.10
2023-03-08T17:31:24.727Z,47.50
2023-03-08T17:33:53.489Z,47.90
2023-03-08T17:36:22.252Z,47.70
2023-03-08T17:38:54.101Z,48.10
2023-03-08T17:41:24.761Z,47.70
2023-03-08T17:43:53.686Z,48.00
2023-03-08T17:46:24.451Z,47.80
2023-03-08T17:48:53.416Z,48.30
2023-03-08T17:51:23.582Z,48.80
2023-03-08T17:53:52.385Z,49.00
2023-03-08T17:56:25.187Z,49.00
2023-03-08T17:58:54.357Z,48.90
2023-03-08T18:01:25.153Z,49.00
2023-03-08T18:03:55.457Z,49.10
2023-03-08T18:06:28.579Z,48.50
2023-03-08T18:08:57.714Z,48.60
2023-03-08T18:11:28.598Z,49.00
2023-03-08T18:13:57.336Z,50.10
2023-03-08T18:16:26.260Z,49.80
2023-03-08T18:18:54.682Z,49.90
2023-03-08T18:21:23.039Z,50.10
2023-03-08T18:23:54.146Z,50.70
2023-03-08T18:26:22.759Z,51.00
2023-03-08T18:28:53.081Z,51.10
2023-03-08T18:31:26.522Z,51.30
2023-03-08T18:33:55.912Z,51.90
2023-03-08T18:36:25.133Z,52.10
2023-03-08T18:38:53.441Z,52.30
2023-03-08T18:41:25.663Z,52.30
2023-03-08T18:43:56.136Z,52.70
2023-03-08T18:46:28.983Z,53.70
2023-03-08T18:48:58.345Z,53.70
2023-03-08T18:51:26.819Z,54.60
2023-03-08T18:53:56.134Z,55.10
2023-03-08T18:56:25.974Z,55.10
2023-03-08T18:58:57.026Z,55.20
2023-03-08T19:01:25.461Z,55.70
2023-03-08T19:03:54.701Z,55.30
2023-03-08T19:06:23.215Z,55.20
2023-03-08T19:08:51.605Z,55.30
2023-03-08T19:11:21.882Z,55.20
2023-03-08T19:13:50.921Z,55.10
2023-03-08T19:16:24.118Z,54.90
2023-03-08T19:18:55.071Z,55.50
2023-03-08T19:21:25.717Z,55.50
2023-03-08T19:23:54.396Z,55.50
2023-03-08T19:26:41.155Z,55.30
2023-03-08T19:29:12.831Z,55.20
2023-03-08T19:31:44.649Z,55.20
2023-03-08T19:34:14.408Z,55.60
2023-03-08T19:36:44.138Z,55.70
2023-03-08T19:39:15.797Z,55.70
2023-03-08T19:41:44.904Z,55.80
2023-03-08T19:44:13.295Z,55.90
2023-03-08T19:46:43.326Z,55.80
2023-03-08T19:49:14.683Z,55.60
2023-03-08T19:51:43.406Z,55.50
2023-03-08T19:54:11.786Z,55.10
2023-03-08T19:56:40.284Z,54.90
2023-03-08T19:59:08.846Z,54.80
2023-03-08T20:01:38.280Z,54.60
2023-03-08T20:04:08.760Z,54.40
2023-03-08T20:06:39.779Z,54.00
2023-03-08T20:09:11.249Z,53.80
2023-03-08T20:11:40.998Z,53.60
2023-03-08T20:14:09.438Z,53.40
2023-03-08T20:16:38.637Z,53.30
2023-03-08T20:19:08.454Z,53.20
2023-03-08T20:21:36.931Z,53.00
2023-03-08T20:24:05.499Z,53.00
2023-03-08T20:26:36.954Z,53.00
2023-03-08T20:29:06.526Z,53.00
2023-03-08T20:31:34.977Z,53.00
2023-03-08T20:34:03.293Z,52.90
2023-03-08T20:36:33.051Z,52.90
2023-03-08T20:39:01.562Z,52.80
2023-03-08T20:41:31.011Z,52.80
2023-03-08T20:43:59.408Z,52.80
2023-03-08T20:46:31.262Z,52.80
2023-03-08T20:48:59.898Z,52.80
2023-03-08T20:51:28.915Z,52.80
2023-03-08T20:53:59.358Z,52.80
2023-03-08T20:56:28.236Z,52.80
2023-03-08T20:59:00.678Z,52.80
2023-03-08T21:01:31.293Z,53.40
2023-03-08T21:03:59.829Z,52.80
2023-03-08T21:06:30.275Z,52.80
2023-03-08T21:09:00.973Z,53.00
2023-03-08T21:11:30.027Z,53.80
2023-03-08T21:13:58.401Z,54.50
2023-03-08T21:16:28.377Z,55.00
2023-03-08T21:18:59.034Z,54.30
2023-03-08T21:21:33.048Z,54.40
2023-03-08T21:24:04.769Z,54.40
2023-03-08T21:26:35.788Z,54.50
2023-03-08T21:29:07.508Z,54.70
2023-03-08T21:31:38.135Z,54.80
2023-03-08T21:34:07.773Z,54.90
2023-03-08T21:36:38.083Z,55.00
2023-03-08T21:39:09.369Z,54.90
2023-03-08T21:41:40.165Z,55.00
2023-03-08T21:44:15.355Z,55.00
2023-03-08T21:46:44.411Z,55.00
2023-03-08T21:49:17.913Z,54.90
2023-03-08T21:51:46.325Z,54.70
2023-03-08T21:54:16.664Z,54.60
2023-03-08T21:56:45.348Z,54.70
2023-03-08T21:59:14.114Z,54.50
2023-03-08T22:01:44.179Z,54.40
2023-03-08T22:04:12.619Z,54.40
2023-03-08T22:06:41.023Z,54.40
2023-03-08T22:09:09.528Z,54.30
2023-03-08T22:11:39.553Z,54.40
2023-03-08T22:14:08.421Z,54.40
2023-03-08T22:16:39.846Z,54.60
2023-03-08T22:19:08.251Z,54.70
2023-03-08T22:21:36.661Z,54.60
2023-03-08T22:24:05.832Z,54.60
2023-03-08T22:26:34.310Z,54.50
2023-03-08T22:29:04.088Z,54.60
2023-03-08T22:31:32.697Z,54.40
2023-03-08T22:34:01.630Z,54.40
2023-03-08T22:36:30.218Z,54.40
2023-03-08T22:38:58.601Z,54.50
2023-03-08T22:41:29.024Z,54.50
2023-03-08T22:43:57.530Z,54.50
2023-03-08T22:46:28.924Z,54.40
2023-03-08T22:48:58.835Z,54.50
2023-03-08T22:51:28.553Z,54.50
2023-03-08T22:53:59.130Z,54.50
2023-03-08T22:56:30.836Z,54.50
2023-03-08T22:58:59.924Z,54.50
2023-03-08T23:01:32.640Z,54.60
2023-03-08T23:04:02.354Z,54.50
2023-03-08T23:06:32.249Z,54.50
2023-03-08T23:09:02.183Z,54.50
2023-03-08T23:11:31.182Z,54.50
2023-03-08T23:13:59.713Z,54.40
2023-03-08T23:16:29.652Z,54.40
2023-03-08T23:18:58.684Z,54.40
2023-03-08T23:21:29.427Z,54.30
2023-03-08T23:23:58.032Z,54.40
2023-03-08T23:26:28.705Z,54.50
2023-03-08T23:28:59.192Z,54.50
2023-03-08T23:31:30.995Z,54.50
2023-03-08T23:34:00.993Z,54.50
2023-03-08T23:36:31.273Z,54.70
2023-03-08T23:39:01.917Z,54.80
2023-03-08T23:41:30.521Z,54.90
2023-03-08T23:44:00.614Z,55.00
2023-03-08T23:46:31.029Z,55.20
2023-03-08T23:49:00.983Z,55.30
2023-03-08T23:51:32.158Z,55.50
2023-03-08T23:54:02.714Z,55.50
2023-03-08T23:56:38.224Z,55.70
2023-03-08T23:59:09.534Z,55.80
